sensor_id;sensor_type;location;lat;lon;timestamp;pressure;altitude;pressure_sealevel;temperature;humidity
33506;BME280;19843;51.040;13.782;2023-04-06T00:01:54;100835.38;;;2.63;74.12
33506;BME280;19843;51.040;13.782;2023-04-06T00:04:21;100834.75;;;2.53;74.61
33506;BME280;19843;51.040;13.782;2023-04-06T00:06:49;100839.25;;;2.49;74.48
33506;BME280;19843;51.040;13.782;2023-04-06T00:09:16;100839.03;;;2.24;75.71
33506;BME280;19843;51.040;13.782;2023-04-06T00:11:45;100840.09;;;2.17;75.92
33506;BME280;19843;51.040;13.782;2023-04-06T00:14:12;100836.50;;;2.20;76.10
33506;BME280;19843;51.040;13.782;2023-04-06T00:16:43;100833.19;;;2.46;75.02
33506;BME280;19843;51.040;13.782;2023-04-06T00:19:10;100841.34;;;2.71;74.30
33506;BME280;19843;51.040;13.782;2023-04-06T00:21:38;100834.38;;;2.67;74.00
33506;BME280;19843;51.040;13.782;2023-04-06T00:24:05;100837.72;;;2.74;73.77
33506;BME280;19843;51.040;13.782;2023-04-06T00:26:33;100836.59;;;2.82;73.74
33506;BME280;19843;51.040;13.782;2023-04-06T00:29:01;100841.69;;;2.90;73.51
33506;BME280;19843;51.040;13.782;2023-04-06T00:31:29;100839.25;;;2.82;73.85
33506;BME280;19843;51.040;13.782;2023-04-06T00:33:57;100842.16;;;2.73;74.31
33506;BME280;19843;51.040;13.782;2023-04-06T00:36:24;100836.81;;;2.75;74.17
33506;BME280;19843;51.040;13.782;2023-04-06T00:38:52;100832.34;;;2.77;73.89
33506;BME280;19843;51.040;13.782;2023-04-06T00:41:19;100832.44;;;2.74;74.23
33506;BME280;19843;51.040;13.782;2023-04-06T00:43:47;100830.72;;;2.72;74.08
33506;BME280;19843;51.040;13.782;2023-04-06T00:46:15;100826.16;;;2.78;73.79
33506;BME280;19843;51.040;13.782;2023-04-06T00:48:43;100830.34;;;2.52;74.69
33506;BME280;19843;51.040;13.782;2023-04-06T00:51:10;100836.09;;;2.35;75.51
33506;BME280;19843;51.040;13.782;2023-04-06T00:53:37;100832.66;;;2.32;75.80
33506;BME280;19843;51.040;13.782;2023-04-06T00:56:05;100832.59;;;2.35;75.61
33506;BME280;19843;51.040;13.782;2023-04-06T00:58:32;100826.91;;;2.50;75.16
33506;BME280;19843;51.040;13.782;2023-04-06T01:01:04;100829.34;;;2.58;74.87
33506;BME280;19843;51.040;13.782;2023-04-06T01:03:32;100834.75;;;2.53;74.79
33506;BME280;19843;51.040;13.782;2023-04-06T01:06:00;100825.84;;;2.56;74.78
33506;BME280;19843;51.040;13.782;2023-04-06T01:08:27;100828.53;;;2.54;74.95
33506;BME280;19843;51.040;13.782;2023-04-06T01:10:55;100830.81;;;2.35;75.75
33506;BME280;19843;51.040;13.782;2023-04-06T01:13:22;100824.16;;;2.53;74.91
33506;BME280;19843;51.040;13.782;2023-04-06T01:15:49;100835.13;;;2.39;75.77
33506;BME280;19843;51.040;13.782;2023-04-06T01:18:17;100832.63;;;2.33;76.08
33506;BME280;19843;51.040;13.782;2023-04-06T01:20:45;100828.06;;;2.40;75.79
33506;BME280;19843;51.040;13.782;2023-04-06T01:23:14;100827.94;;;2.44;75.32
33506;BME280;19843;51.040;13.782;2023-04-06T01:25:41;100821.50;;;2.55;74.92
33506;BME280;19843;51.040;13.782;2023-04-06T01:28:08;100829.22;;;2.62;74.73
33506;BME280;19843;51.040;13.782;2023-04-06T01:30:36;100824.19;;;2.51;75.22
33506;BME280;19843;51.040;13.782;2023-04-06T01:33:03;100819.03;;;2.47;75.36
33506;BME280;19843;51.040;13.782;2023-04-06T01:35:31;100825.75;;;2.27;75.97
33506;BME280;19843;51.040;13.782;2023-04-06T01:37:58;100823.72;;;2.03;76.84
33506;BME280;19843;51.040;13.782;2023-04-06T01:40:27;100825.28;;;2.10;76.76
33506;BME280;19843;51.040;13.782;2023-04-06T01:42:54;100828.63;;;2.18;76.51
33506;BME280;19843;51.040;13.782;2023-04-06T01:45:21;100818.22;;;2.11;76.69
33506;BME280;19843;51.040;13.782;2023-04-06T01:47:48;100817.44;;;2.07;76.53
33506;BME280;19843;51.040;13.782;2023-04-06T01:50:16;100823.13;;;1.90;76.98
33506;BME280;19843;51.040;13.782;2023-04-06T01:52:43;100823.09;;;1.93;77.03
33506;BME280;19843;51.040;13.782;2023-04-06T01:55:11;100818.66;;;1.94;77.08
33506;BME280;19843;51.040;13.782;2023-04-06T01:57:39;100817.13;;;2.19;76.01
33506;BME280;19843;51.040;13.782;2023-04-06T02:00:07;100819.75;;;2.19;76.01
33506;BME280;19843;51.040;13.782;2023-04-06T02:02:34;100823.72;;;2.03;76.26
33506;BME280;19843;51.040;13.782;2023-04-06T02:05:02;100819.94;;;1.77;77.26
33506;BME280;19843;51.040;13.782;2023-04-06T02:07:29;100818.00;;;1.84;77.25
33506;BME280;19843;51.040;13.782;2023-04-06T02:09:57;100816.13;;;1.89;77.17
33506;BME280;19843;51.040;13.782;2023-04-06T02:12:24;100815.94;;;1.97;76.61
33506;BME280;19843;51.040;13.782;2023-04-06T02:14:53;100815.53;;;1.76;77.12
33506;BME280;19843;51.040;13.782;2023-04-06T02:17:20;100822.72;;;1.71;77.67
33506;BME280;19843;51.040;13.782;2023-04-06T02:19:47;100812.88;;;1.78;76.62
33506;BME280;19843;51.040;13.782;2023-04-06T02:22:15;100812.69;;;1.48;77.68
33506;BME280;19843;51.040;13.782;2023-04-06T02:24:42;100813.84;;;1.36;78.44
33506;BME280;19843;51.040;13.782;2023-04-06T02:27:09;100812.06;;;1.37;78.86
33506;BME280;19843;51.040;13.782;2023-04-06T02:29:37;100818.50;;;1.25;79.04
33506;BME280;19843;51.040;13.782;2023-04-06T02:32:05;100805.09;;;1.33;79.05
33506;BME280;19843;51.040;13.782;2023-04-06T02:34:33;100801.59;;;1.32;78.11
33506;BME280;19843;51.040;13.782;2023-04-06T02:37:00;100811.66;;;1.15;78.85
33506;BME280;19843;51.040;13.782;2023-04-06T02:39:27;100816.22;;;1.07;79.63
33506;BME280;19843;51.040;13.782;2023-04-06T02:41:55;100807.75;;;0.92;80.05
33506;BME280;19843;51.040;13.782;2023-04-06T02:44:23;100810.31;;;0.95;80.05
33506;BME280;19843;51.040;13.782;2023-04-06T02:46:50;100813.47;;;1.13;79.79
33506;BME280;19843;51.040;13.782;2023-04-06T02:49:19;100815.03;;;1.21;79.41
33506;BME280;19843;51.040;13.782;2023-04-06T02:51:46;100812.59;;;1.14;79.25
33506;BME280;19843;51.040;13.782;2023-04-06T02:54:13;100809.41;;;0.96;79.47
33506;BME280;19843;51.040;13.782;2023-04-06T02:56:41;100812.03;;;0.98;80.18
33506;BME280;19843;51.040;13.782;2023-04-06T02:59:08;100809.41;;;0.98;80.43
33506;BME280;19843;51.040;13.782;2023-04-06T03:01:36;100814.31;;;1.15;80.06
33506;BME280;19843;51.040;13.782;2023-04-06T03:04:03;100818.78;;;1.11;80.04
33506;BME280;19843;51.040;13.782;2023-04-06T03:06:32;100814.31;;;1.13;80.13
33506;BME280;19843;51.040;13.782;2023-04-06T03:08:59;100815.25;;;1.11;80.05
33506;BME280;19843;51.040;13.782;2023-04-06T03:11:26;100816.00;;;1.17;80.00
33506;BME280;19843;51.040;13.782;2023-04-06T03:13:54;100815.66;;;0.92;80.88
33506;BME280;19843;51.040;13.782;2023-04-06T03:16:21;100820.84;;;0.97;81.03
33506;BME280;19843;51.040;13.782;2023-04-06T03:18:48;100807.75;;;0.92;81.47
33506;BME280;19843;51.040;13.782;2023-04-06T03:21:16;100815.38;;;1.06;80.93
33506;BME280;19843;51.040;13.782;2023-04-06T03:23:44;100817.88;;;1.14;80.32
33506;BME280;19843;51.040;13.782;2023-04-06T03:26:12;100810.75;;;1.16;79.82
33506;BME280;19843;51.040;13.782;2023-04-06T03:28:39;100814.59;;;1.02;79.92
33506;BME280;19843;51.040;13.782;2023-04-06T03:31:06;100820.81;;;0.98;80.16
33506;BME280;19843;51.040;13.782;2023-04-06T03:33:33;100821.13;;;0.83;80.49
33506;BME280;19843;51.040;13.782;2023-04-06T03:36:01;100827.72;;;0.60;81.37
33506;BME280;19843;51.040;13.782;2023-04-06T03:38:28;100834.28;;;0.41;82.43
33506;BME280;19843;51.040;13.782;2023-04-06T03:40:57;100823.72;;;0.41;83.49
33506;BME280;19843;51.040;13.782;2023-04-06T03:43:24;100825.94;;;0.61;82.49
33506;BME280;19843;51.040;13.782;2023-04-06T03:45:51;100832.22;;;0.55;82.31
33506;BME280;19843;51.040;13.782;2023-04-06T03:48:19;100835.59;;;0.15;83.50
33506;BME280;19843;51.040;13.782;2023-04-06T03:50:46;100840.13;;;0.07;84.20
33506;BME280;19843;51.040;13.782;2023-04-06T03:53:13;100840.91;;;0.12;84.40
33506;BME280;19843;51.040;13.782;2023-04-06T03:55:40;100838.34;;;0.09;84.54
33506;BME280;19843;51.040;13.782;2023-04-06T03:58:09;100844.50;;;0.08;84.12
33506;BME280;19843;51.040;13.782;2023-04-06T04:00:36;100839.97;;;0.16;84.26
33506;BME280;19843;51.040;13.782;2023-04-06T04:03:04;100844.88;;;0.38;83.72
33506;BME280;19843;51.040;13.782;2023-04-06T04:05:31;100845.63;;;0.45;82.87
33506;BME280;19843;51.040;13.782;2023-04-06T04:07:59;100845.19;;;0.68;81.64
33506;BME280;19843;51.040;13.782;2023-04-06T04:10:26;100842.53;;;0.68;81.38
33506;BME280;19843;51.040;13.782;2023-04-06T04:12:53;100844.34;;;0.66;81.74
33506;BME280;19843;51.040;13.782;2023-04-06T04:15:22;100851.28;;;0.71;81.22
33506;BME280;19843;51.040;13.782;2023-04-06T04:17:49;100853.91;;;0.73;80.24
33506;BME280;19843;51.040;13.782;2023-04-06T04:20:17;100846.00;;;0.71;80.22
33506;BME280;19843;51.040;13.782;2023-04-06T04:22:44;100838.31;;;0.59;80.25
33506;BME280;19843;51.040;13.782;2023-04-06T04:25:12;100847.78;;;0.71;79.84
33506;BME280;19843;51.040;13.782;2023-04-06T04:27:40;100847.03;;;0.64;79.66
33506;BME280;19843;51.040;13.782;2023-04-06T04:30:08;100847.03;;;0.64;79.82
33506;BME280;19843;51.040;13.782;2023-04-06T04:32:36;100849.78;;;0.56;79.96
33506;BME280;19843;51.040;13.782;2023-04-06T04:35:04;100850.47;;;0.68;79.80
33506;BME280;19843;51.040;13.782;2023-04-06T04:37:31;100852.31;;;0.62;79.78
33506;BME280;19843;51.040;13.782;2023-04-06T04:40:00;100852.41;;;0.58;80.24
33506;BME280;19843;51.040;13.782;2023-04-06T04:42:28;100848.91;;;0.57;79.91
33506;BME280;19843;51.040;13.782;2023-04-06T04:44:56;100852.41;;;0.58;79.88
33506;BME280;19843;51.040;13.782;2023-04-06T04:47:23;100852.69;;;0.44;80.97
33506;BME280;19843;51.040;13.782;2023-04-06T04:49:52;100846.13;;;0.63;80.89
33506;BME280;19843;51.040;13.782;2023-04-06T04:52:19;100847.72;;;0.74;80.60
33506;BME280;19843;51.040;13.782;2023-04-06T04:54:46;100848.84;;;0.60;81.05
33506;BME280;19843;51.040;13.782;2023-04-06T04:57:14;100838.00;;;0.76;80.60
33506;BME280;19843;51.040;13.782;2023-04-06T04:59:42;100846.81;;;0.75;81.03
33506;BME280;19843;51.040;13.782;2023-04-06T05:02:09;100847.88;;;0.66;81.26
33506;BME280;19843;51.040;13.782;2023-04-06T05:04:36;100847.13;;;0.58;81.95
33506;BME280;19843;51.040;13.782;2023-04-06T05:07:05;100848.06;;;0.57;81.98
33506;BME280;19843;51.040;13.782;2023-04-06T05:09:33;100851.31;;;0.70;81.85
33506;BME280;19843;51.040;13.782;2023-04-06T05:12:01;100859.50;;;0.56;82.13
33506;BME280;19843;51.040;13.782;2023-04-06T05:14:28;100862.09;;;0.57;82.15
33506;BME280;19843;51.040;13.782;2023-04-06T05:16:56;100866.38;;;0.63;82.67
33506;BME280;19843;51.040;13.782;2023-04-06T05:19:23;100865.69;;;0.53;83.27
33506;BME280;19843;51.040;13.782;2023-04-06T05:21:50;100869.09;;;0.60;83.38
33506;BME280;19843;51.040;13.782;2023-04-06T05:24:19;100868.91;;;0.71;82.72
33506;BME280;19843;51.040;13.782;2023-04-06T05:26:46;100872.47;;;0.68;82.20
33506;BME280;19843;51.040;13.782;2023-04-06T05:29:13;100872.97;;;0.89;81.27
33506;BME280;19843;51.040;13.782;2023-04-06T05:31:41;100871.38;;;1.22;79.83
33506;BME280;19843;51.040;13.782;2023-04-06T05:34:08;100872.94;;;1.32;78.64
33506;BME280;19843;51.040;13.782;2023-04-06T05:36:36;100873.59;;;1.42;78.51
33506;BME280;19843;51.040;13.782;2023-04-06T05:39:03;100873.00;;;1.68;77.37
33506;BME280;19843;51.040;13.782;2023-04-06T05:41:32;100871.94;;;1.77;76.65
33506;BME280;19843;51.040;13.782;2023-04-06T05:44:00;100876.75;;;1.97;76.02
33506;BME280;19843;51.040;13.782;2023-04-06T05:46:27;100874.44;;;2.20;74.91
33506;BME280;19843;51.040;13.782;2023-04-06T05:48:54;100870.75;;;2.26;74.18
33506;BME280;19843;51.040;13.782;2023-04-06T05:51:22;100874.81;;;2.39;73.37
33506;BME280;19843;51.040;13.782;2023-04-06T05:53:49;100877.78;;;2.61;72.61
33506;BME280;19843;51.040;13.782;2023-04-06T05:56:16;100871.06;;;2.81;72.39
33506;BME280;19843;51.040;13.782;2023-04-06T05:58:45;100874.31;;;2.90;71.46
33506;BME280;19843;51.040;13.782;2023-04-06T06:01:13;100866.50;;;2.86;71.35
33506;BME280;19843;51.040;13.782;2023-04-06T06:03:40;100862.88;;;2.90;71.59
33506;BME280;19843;51.040;13.782;2023-04-06T06:06:07;100859.50;;;2.85;71.45
33506;BME280;19843;51.040;13.782;2023-04-06T06:08:34;100858.75;;;2.80;71.29
33506;BME280;19843;51.040;13.782;2023-04-06T06:11:02;100860.69;;;3.04;70.85
33506;BME280;19843;51.040;13.782;2023-04-06T06:13:29;100862.72;;;3.26;70.60
33506;BME280;19843;51.040;13.782;2023-04-06T06:15:58;100860.94;;;3.26;70.18
33506;BME280;19843;51.040;13.782;2023-04-06T06:18:25;100856.63;;;3.22;70.26
33506;BME280;19843;51.040;13.782;2023-04-06T06:20:52;100857.44;;;3.26;70.21
33506;BME280;19843;51.040;13.782;2023-04-06T06:23:20;100860.53;;;3.40;70.27
33506;BME280;19843;51.040;13.782;2023-04-06T06:25:47;100863.97;;;3.44;69.86
33506;BME280;19843;51.040;13.782;2023-04-06T06:28:14;100855.84;;;3.50;69.71
33506;BME280;19843;51.040;13.782;2023-04-06T06:30:42;100863.56;;;3.56;69.32
33506;BME280;19843;51.040;13.782;2023-04-06T06:33:11;100869.78;;;3.85;68.28
33506;BME280;19843;51.040;13.782;2023-04-06T06:35:38;100867.00;;;4.16;67.87
33506;BME280;19843;51.040;13.782;2023-04-06T06:38:05;100864.69;;;4.32;67.07
33506;BME280;19843;51.040;13.782;2023-04-06T06:40:33;100860.53;;;4.50;65.75
33506;BME280;19843;51.040;13.782;2023-04-06T06:43:00;100856.63;;;4.60;65.55
33506;BME280;19843;51.040;13.782;2023-04-06T06:45:28;100861.63;;;4.44;67.57
33506;BME280;19843;51.040;13.782;2023-04-06T06:47:56;100857.25;;;4.68;66.26
33506;BME280;19843;51.040;13.782;2023-04-06T06:50:25;100866.91;;;4.94;64.44
33506;BME280;19843;51.040;13.782;2023-04-06T06:52:52;100857.91;;;4.98;63.60
33506;BME280;19843;51.040;13.782;2023-04-06T06:55:19;100862.38;;;4.98;64.43
33506;BME280;19843;51.040;13.782;2023-04-06T06:57:47;100861.75;;;5.38;62.83
33506;BME280;19843;51.040;13.782;2023-04-06T07:00:14;100857.75;;;5.27;62.11
33506;BME280;19843;51.040;13.782;2023-04-06T07:02:42;100857.22;;;5.64;61.06
33506;BME280;19843;51.040;13.782;2023-04-06T07:05:09;100851.75;;;5.67;61.81
33506;BME280;19843;51.040;13.782;2023-04-06T07:07:53;100857.09;;;5.89;60.39
33506;BME280;19843;51.040;13.782;2023-04-06T07:10:21;100864.38;;;6.07;59.55
33506;BME280;19843;51.040;13.782;2023-04-06T07:12:48;100858.00;;;6.12;59.13
33506;BME280;19843;51.040;13.782;2023-04-06T07:15:16;100857.59;;;6.21;59.63
33506;BME280;19843;51.040;13.782;2023-04-06T07:17:43;100856.13;;;6.14;58.62
33506;BME280;19843;51.040;13.782;2023-04-06T07:20:12;100860.88;;;6.27;58.41
33506;BME280;19843;51.040;13.782;2023-04-06T07:22:40;100854.13;;;6.19;58.04
33506;BME280;19843;51.040;13.782;2023-04-06T07:25:09;100851.53;;;6.17;58.25
33506;BME280;19843;51.040;13.782;2023-04-06T07:27:36;100854.31;;;6.36;58.33
33506;BME280;19843;51.040;13.782;2023-04-06T07:30:04;100854.78;;;6.66;58.03
33506;BME280;19843;51.040;13.782;2023-04-06T07:32:31;100850.44;;;6.84;57.72
33506;BME280;19843;51.040;13.782;2023-04-06T07:35:00;100850.56;;;7.02;56.71
33506;BME280;19843;51.040;13.782;2023-04-06T07:37:28;100844.81;;;7.11;55.89
33506;BME280;19843;51.040;13.782;2023-04-06T07:39:55;100845.69;;;7.30;55.92
33506;BME280;19843;51.040;13.782;2023-04-06T07:42:24;100841.19;;;7.31;54.56
33506;BME280;19843;51.040;13.782;2023-04-06T07:44:51;100844.59;;;7.53;54.66
33506;BME280;19843;51.040;13.782;2023-04-06T07:47:18;100841.69;;;7.58;54.64
33506;BME280;19843;51.040;13.782;2023-04-06T07:49:45;100843.94;;;7.67;53.82
33506;BME280;19843;51.040;13.782;2023-04-06T07:52:13;100843.66;;;7.73;53.18
33506;BME280;19843;51.040;13.782;2023-04-06T07:54:40;100839.63;;;8.01;52.56
33506;BME280;19843;51.040;13.782;2023-04-06T07:57:07;100839.38;;;7.88;51.83
33506;BME280;19843;51.040;13.782;2023-04-06T07:59:36;100840.78;;;8.32;51.62
33506;BME280;19843;51.040;13.782;2023-04-06T08:02:03;100844.13;;;8.54;52.17
33506;BME280;19843;51.040;13.782;2023-04-06T08:04:31;100840.47;;;8.73;50.96
33506;BME280;19843;51.040;13.782;2023-04-06T08:06:59;100841.44;;;9.05;50.18
33506;BME280;19843;51.040;13.782;2023-04-06T08:09:26;100837.38;;;9.31;49.00
33506;BME280;19843;51.040;13.782;2023-04-06T08:11:54;100837.44;;;9.46;48.27
33506;BME280;19843;51.040;13.782;2023-04-06T08:14:21;100839.16;;;9.47;47.48
33506;BME280;19843;51.040;13.782;2023-04-06T08:16:50;100843.25;;;9.54;47.20
33506;BME280;19843;51.040;13.782;2023-04-06T08:19:17;100839.09;;;9.80;46.55
33506;BME280;19843;51.040;13.782;2023-04-06T08:21:45;100842.03;;;9.75;47.10
33506;BME280;19843;51.040;13.782;2023-04-06T08:24:13;100840.19;;;10.08;47.46
33506;BME280;19843;51.040;13.782;2023-04-06T08:26:40;100827.53;;;10.25;45.06
33506;BME280;19843;51.040;13.782;2023-04-06T08:29:08;100833.44;;;10.16;44.81
33506;BME280;19843;51.040;13.782;2023-04-06T08:31:35;100824.59;;;9.84;43.45
33506;BME280;19843;51.040;13.782;2023-04-06T08:34:04;100823.72;;;9.83;42.70
33506;BME280;19843;51.040;13.782;2023-04-06T08:36:35;100825.34;;;10.02;43.62
33506;BME280;19843;51.040;13.782;2023-04-06T08:39:02;100824.63;;;10.14;43.16
33506;BME280;19843;51.040;13.782;2023-04-06T08:41:30;100822.47;;;10.05;43.65
33506;BME280;19843;51.040;13.782;2023-04-06T08:43:58;100822.63;;;10.34;41.69
33506;BME280;19843;51.040;13.782;2023-04-06T08:46:26;100818.34;;;10.60;42.51
33506;BME280;19843;51.040;13.782;2023-04-06T08:48:56;100822.03;;;10.87;38.85
33506;BME280;19843;51.040;13.782;2023-04-06T08:51:25;100815.72;;;11.03;38.96
33506;BME280;19843;51.040;13.782;2023-04-06T08:53:54;100811.53;;;11.13;39.05
33506;BME280;19843;51.040;13.782;2023-04-06T08:56:21;100812.47;;;11.26;37.66
33506;BME280;19843;51.040;13.782;2023-04-06T08:58:49;100806.00;;;11.43;37.71
33506;BME280;19843;51.040;13.782;2023-04-06T09:01:20;100810.09;;;11.22;37.63
33506;BME280;19843;51.040;13.782;2023-04-06T09:03:48;100811.78;;;11.23;37.79
33506;BME280;19843;51.040;13.782;2023-04-06T09:06:17;100811.94;;;11.48;40.94
33506;BME280;19843;51.040;13.782;2023-04-06T09:08:46;100806.50;;;11.77;39.68
33506;BME280;19843;51.040;13.782;2023-04-06T09:11:14;100807.53;;;11.33;38.54
33506;BME280;19843;51.040;13.782;2023-04-06T09:13:45;100806.56;;;11.48;38.19
33506;BME280;19843;51.040;13.782;2023-04-06T09:16:13;100802.94;;;11.35;36.57
33506;BME280;19843;51.040;13.782;2023-04-06T09:18:40;100803.91;;;11.34;37.87
33506;BME280;19843;51.040;13.782;2023-04-06T09:21:08;100803.31;;;11.85;37.28
33506;BME280;19843;51.040;13.782;2023-04-06T09:23:36;100806.13;;;11.69;35.78
33506;BME280;19843;51.040;13.782;2023-04-06T09:26:09;100796.28;;;11.97;35.21
33506;BME280;19843;51.040;13.782;2023-04-06T09:28:43;100792.72;;;12.23;35.46
33506;BME280;19843;51.040;13.782;2023-04-06T09:31:11;100796.88;;;12.15;34.95
33506;BME280;19843;51.040;13.782;2023-04-06T09:33:38;100783.88;;;12.08;34.45
33506;BME280;19843;51.040;13.782;2023-04-06T09:36:06;100797.69;;;12.29;36.43
33506;BME280;19843;51.040;13.782;2023-04-06T09:38:36;100789.56;;;12.17;34.48
33506;BME280;19843;51.040;13.782;2023-04-06T09:41:03;100781.50;;;12.17;33.58
33506;BME280;19843;51.040;13.782;2023-04-06T09:43:32;100779.97;;;12.65;33.57
33506;BME280;19843;51.040;13.782;2023-04-06T09:46:00;100780.88;;;12.13;32.54
33506;BME280;19843;51.040;13.782;2023-04-06T09:48:29;100777.94;;;12.56;33.69
33506;BME280;19843;51.040;13.782;2023-04-06T09:50:59;100770.81;;;13.06;33.14
33506;BME280;19843;51.040;13.782;2023-04-06T09:53:26;100776.47;;;13.14;32.01
33506;BME280;19843;51.040;13.782;2023-04-06T09:55:55;100768.63;;;13.24;31.96
33506;BME280;19843;51.040;13.782;2023-04-06T09:58:24;100771.97;;;13.28;31.24
33506;BME280;19843;51.040;13.782;2023-04-06T10:00:55;100765.09;;;12.98;30.04
33506;BME280;19843;51.040;13.782;2023-04-06T10:03:26;100768.25;;;12.66;31.27
33506;BME280;19843;51.040;13.782;2023-04-06T10:05:59;100771.53;;;12.19;30.53
33506;BME280;19843;51.040;13.782;2023-04-06T10:08:30;100766.59;;;11.71;31.39
33506;BME280;19843;51.040;13.782;2023-04-06T10:11:00;100774.19;;;12.06;32.54
33506;BME280;19843;51.040;13.782;2023-04-06T10:13:27;100767.81;;;12.47;30.11
33506;BME280;19843;51.040;13.782;2023-04-06T10:15:56;100767.28;;;12.67;31.63
33506;BME280;19843;51.040;13.782;2023-04-06T10:18:24;100773.78;;;13.14;31.14
33506;BME280;19843;51.040;13.782;2023-04-06T10:20:53;100758.41;;;13.53;30.58
33506;BME280;19843;51.040;13.782;2023-04-06T10:23:22;100755.53;;;14.16;29.84
33506;BME280;19843;51.040;13.782;2023-04-06T10:25:51;100757.06;;;13.96;29.10
33506;BME280;19843;51.040;13.782;2023-04-06T10:28:19;100756.34;;;14.40;29.11
33506;BME280;19843;51.040;13.782;2023-04-06T10:30:46;100743.69;;;14.88;28.43
33506;BME280;19843;51.040;13.782;2023-04-06T10:33:16;100746.84;;;14.59;28.27
33506;BME280;19843;51.040;13.782;2023-04-06T10:35:43;100756.66;;;13.89;29.74
33506;BME280;19843;51.040;13.782;2023-04-06T10:38:11;100752.25;;;13.40;29.87
33506;BME280;19843;51.040;13.782;2023-04-06T10:40:40;100752.53;;;12.73;28.90
33506;BME280;19843;51.040;13.782;2023-04-06T10:43:09;100751.66;;;12.85;29.39
33506;BME280;19843;51.040;13.782;2023-04-06T10:45:36;100748.66;;;12.64;27.81
33506;BME280;19843;51.040;13.782;2023-04-06T10:48:14;100749.19;;;12.57;28.94
33506;BME280;19843;51.040;13.782;2023-04-06T10:50:44;100754.41;;;12.07;30.29
33506;BME280;19843;51.040;13.782;2023-04-06T10:53:19;100755.66;;;11.88;29.29
33506;BME280;19843;51.040;13.782;2023-04-06T10:55:47;100745.66;;;11.90;27.68
33506;BME280;19843;51.040;13.782;2023-04-06T10:58:16;100746.13;;;11.83;29.32
33506;BME280;19843;51.040;13.782;2023-04-06T11:00:44;100745.31;;;11.41;29.77
33506;BME280;19843;51.040;13.782;2023-04-06T11:03:16;100734.41;;;12.11;30.86
33506;BME280;19843;51.040;13.782;2023-04-06T11:05:46;100732.31;;;12.67;29.66
33506;BME280;19843;51.040;13.782;2023-04-06T11:08:23;100726.16;;;13.41;29.26
33506;BME280;19843;51.040;13.782;2023-04-06T11:10:50;100726.44;;;13.73;28.15
33506;BME280;19843;51.040;13.782;2023-04-06T11:13:18;100729.38;;;13.70;27.84
33506;BME280;19843;51.040;13.782;2023-04-06T11:15:45;100725.00;;;13.19;28.39
33506;BME280;19843;51.040;13.782;2023-04-06T11:18:12;100726.06;;;12.41;29.49
33506;BME280;19843;51.040;13.782;2023-04-06T11:20:48;100727.38;;;11.96;31.08
33506;BME280;19843;51.040;13.782;2023-04-06T11:23:22;100730.97;;;11.55;30.94
33506;BME280;19843;51.040;13.782;2023-04-06T11:25:50;100724.25;;;11.62;29.60
33506;BME280;19843;51.040;13.782;2023-04-06T11:28:17;100727.22;;;11.57;30.41
33506;BME280;19843;51.040;13.782;2023-04-06T11:30:45;100730.81;;;10.87;30.86
33506;BME280;19843;51.040;13.782;2023-04-06T11:33:19;100727.50;;;10.70;31.98
33506;BME280;19843;51.040;13.782;2023-04-06T11:35:48;100726.69;;;10.53;31.94
33506;BME280;19843;51.040;13.782;2023-04-06T11:38:17;100727.97;;;10.91;31.78
33506;BME280;19843;51.040;13.782;2023-04-06T11:40:45;100723.44;;;11.47;32.84
33506;BME280;19843;51.040;13.782;2023-04-06T11:43:12;100721.50;;;11.49;30.73
33506;BME280;19843;51.040;13.782;2023-04-06T11:45:39;100722.06;;;11.13;31.58
33506;BME280;19843;51.040;13.782;2023-04-06T11:48:16;100719.81;;;11.06;31.20
33506;BME280;19843;51.040;13.782;2023-04-06T11:50:45;100714.16;;;11.38;31.21
33506;BME280;19843;51.040;13.782;2023-04-06T11:53:14;100713.34;;;11.50;30.86
33506;BME280;19843;51.040;13.782;2023-04-06T11:55:42;100706.28;;;11.49;30.66
33506;BME280;19843;51.040;13.782;2023-04-06T11:58:12;100713.84;;;11.97;31.51
33506;BME280;19843;51.040;13.782;2023-04-06T12:00:40;100709.56;;;11.95;30.04
33506;BME280;19843;51.040;13.782;2023-04-06T12:03:12;100705.81;;;11.83;30.31
33506;BME280;19843;51.040;13.782;2023-04-06T12:05:40;100699.66;;;12.08;30.75
33506;BME280;19843;51.040;13.782;2023-04-06T12:08:07;100700.25;;;12.39;31.15
33506;BME280;19843;51.040;13.782;2023-04-06T12:10:36;100701.06;;;12.78;29.88
33506;BME280;19843;51.040;13.782;2023-04-06T12:13:03;100695.59;;;12.66;30.30
33506;BME280;19843;51.040;13.782;2023-04-06T12:15:31;100693.19;;;12.87;29.43
33506;BME280;19843;51.040;13.782;2023-04-06T12:17:58;100695.63;;;13.16;29.09
33506;BME280;19843;51.040;13.782;2023-04-06T12:20:25;100686.75;;;13.27;30.35
33506;BME280;19843;51.040;13.782;2023-04-06T12:22:53;100682.50;;;13.11;28.06
33506;BME280;19843;51.040;13.782;2023-04-06T12:25:21;100672.09;;;12.94;29.33
33506;BME280;19843;51.040;13.782;2023-04-06T12:27:49;100673.66;;;13.09;28.81
33506;BME280;19843;51.040;13.782;2023-04-06T12:30:17;100676.59;;;13.06;28.70
33506;BME280;19843;51.040;13.782;2023-04-06T12:32:44;100665.16;;;12.79;29.39
33506;BME280;19843;51.040;13.782;2023-04-06T12:35:14;100667.09;;;12.77;29.88
33506;BME280;19843;51.040;13.782;2023-04-06T12:37:42;100668.59;;;12.68;30.58
33506;BME280;19843;51.040;13.782;2023-04-06T12:40:10;100666.34;;;12.49;30.61
33506;BME280;19843;51.040;13.782;2023-04-06T12:42:38;100662.38;;;12.42;29.95
33506;BME280;19843;51.040;13.782;2023-04-06T12:45:08;100659.81;;;12.40;29.75
33506;BME280;19843;51.040;13.782;2023-04-06T12:47:35;100652.88;;;12.74;29.73
33506;BME280;19843;51.040;13.782;2023-04-06T12:50:04;100656.34;;;12.51;29.11